sensor_id;sensor_type;location;lat;lon;timestamp;P1;durP1;ratioP1;P2;durP2;ratioP2
77148;SDS011;66122;47.130;16.844;2022-12-18T00:01:34;39.50;;;15.35;;
77148;SDS011;66122;47.130;16.844;2022-12-18T00:04:03;39.20;;;16.30;;
77148;SDS011;66122;47.130;16.844;2022-12-18T00:06:33;33.38;;;15.73;;
77148;SDS011;66122;47.130;16.844;2022-12-18T00:09:02;43.88;;;14.85;;
77148;SDS011;66122;47.130;16.844;2022-12-18T00:11:30;38.77;;;16.50;;
77148;SDS011;66122;47.130;16.844;2022-12-18T00:13:59;37.92;;;16.35;;
77148;SDS011;66122;47.130;16.844;2022-12-18T00:16:27;42.08;;;17.27;;
77148;SDS011;66122;47.130;16.844;2022-12-18T00:18:57;39.35;;;15.35;;
77148;SDS011;66122;47.130;16.844;2022-12-18T00:21:26;36.70;;;15.50;;
77148;SDS011;66122;47.130;16.844;2022-12-18T00:23:55;37.20;;;13.90;;
77148;SDS011;66122;47.130;16.844;2022-12-18T00:26:24;39.10;;;15.07;;
77148;SDS011;66122;47.130;16.844;2022-12-18T00:29:00;35.25;;;15.23;;
77148;SDS011;66122;47.130;16.844;2022-12-18T00:31:31;36.47;;;14.93;;
77148;SDS011;66122;47.130;16.844;2022-12-18T00:34:01;39.38;;;16.48;;
77148;SDS011;66122;47.130;16.844;2022-12-18T00:36:30;38.70;;;15.30;;
77148;SDS011;66122;47.130;16.844;2022-12-18T00:39:00;40.47;;;16.08;;
77148;SDS011;66122;47.130;16.844;2022-12-18T00:41:29;39.58;;;15.93;;
77148;SDS011;66122;47.130;16.844;2022-12-18T00:44:16;35.67;;;15.60;;
77148;SDS011;66122;47.130;16.844;2022-12-18T00:46:45;37.97;;;15.85;;
77148;SDS011;66122;47.130;16.844;2022-12-18T00:49:15;35.67;;;16.40;;
77148;SDS011;66122;47.130;16.844;2022-12-18T00:51:46;35.55;;;14.50;;
77148;SDS011;66122;47.130;16.844;2022-12-18T00:54:14;38.85;;;15.75;;
77148;SDS011;66122;47.130;16.844;2022-12-18T00:56:41;40.97;;;15.30;;
77148;SDS011;66122;47.130;16.844;2022-12-18T00:59:16;40.42;;;14.80;;
77148;SDS011;66122;47.130;16.844;2022-12-18T01:01:44;39.40;;;16.60;;
77148;SDS011;66122;47.130;16.844;2022-12-18T01:04:13;35.97;;;14.48;;
77148;SDS011;66122;47.130;16.844;2022-12-18T01:06:43;34.90;;;14.13;;
77148;SDS011;66122;47.130;16.844;2022-12-18T01:09:11;41.22;;;15.80;;
77148;SDS011;66122;47.130;16.844;2022-12-18T01:11:39;34.30;;;14.30;;
77148;SDS011;66122;47.130;16.844;2022-12-18T01:14:07;35.50;;;14.30;;
77148;SDS011;66122;47.130;16.844;2022-12-18T01:16:37;28.00;;;13.13;;
77148;SDS011;66122;47.130;16.844;2022-12-18T01:19:04;35.17;;;14.60;;
77148;SDS011;66122;47.130;16.844;2022-12-18T01:21:32;35.75;;;14.07;;
77148;SDS011;66122;47.130;16.844;2022-12-18T01:24:03;33.20;;;13.80;;
77148;SDS011;66122;47.130;16.844;2022-12-18T01:26:31;33.77;;;14.20;;
77148;SDS011;66122;47.130;16.844;2022-12-18T01:28:58;32.90;;;14.02;;
77148;SDS011;66122;47.130;16.844;2022-12-18T01:31:27;39.90;;;15.10;;
77148;SDS011;66122;47.130;16.844;2022-12-18T01:33:57;37.53;;;14.32;;
77148;SDS011;66122;47.130;16.844;2022-12-18T01:36:31;37.30;;;15.00;;
77148;SDS011;66122;47.130;16.844;2022-12-18T01:39:00;37.43;;;14.73;;
77148;SDS011;66122;47.130;16.844;2022-12-18T01:41:30;36.58;;;14.23;;
77148;SDS011;66122;47.130;16.844;2022-12-18T01:47:20;34.53;;;13.52;;
77148;SDS011;66122;47.130;16.844;2022-12-18T01:49:52;36.28;;;14.20;;
77148;SDS011;66122;47.130;16.844;2022-12-18T01:52:21;33.20;;;12.90;;
77148;SDS011;66122;47.130;16.844;2022-12-18T01:54:51;36.25;;;13.23;;
77148;SDS011;66122;47.130;16.844;2022-12-18T01:57:21;31.40;;;13.35;;
77148;SDS011;66122;47.130;16.844;2022-12-18T01:59:51;34.92;;;13.50;;
77148;SDS011;66122;47.130;16.844;2022-12-18T02:02:20;34.05;;;14.18;;
77148;SDS011;66122;47.130;16.844;2022-12-18T02:04:49;31.50;;;13.83;;
77148;SDS011;66122;47.130;16.844;2022-12-18T02:09:50;38.13;;;14.93;;
77148;SDS011;66122;47.130;16.844;2022-12-18T02:12:45;36.50;;;14.52;;
77148;SDS011;66122;47.130;16.844;2022-12-18T02:15:29;43.15;;;15.55;;
77148;SDS011;66122;47.130;16.844;2022-12-18T02:18:12;31.23;;;13.37;;
77148;SDS011;66122;47.130;16.844;2022-12-18T02:21:08;32.25;;;12.85;;
77148;SDS011;66122;47.130;16.844;2022-12-18T02:23:56;32.08;;;13.05;;
77148;SDS011;66122;47.130;16.844;2022-12-18T02:26:48;39.13;;;14.50;;
77148;SDS011;66122;47.130;16.844;2022-12-18T02:32:25;33.90;;;13.53;;
77148;SDS011;66122;47.130;16.844;2022-12-18T02:34:57;35.47;;;14.10;;
77148;SDS011;66122;47.130;16.844;2022-12-18T02:37:28;35.45;;;12.88;;
77148;SDS011;66122;47.130;16.844;2022-12-18T02:40:00;31.83;;;13.35;;
77148;SDS011;66122;47.130;16.844;2022-12-18T02:42:34;32.42;;;13.50;;
77148;SDS011;66122;47.130;16.844;2022-12-18T02:45:04;33.50;;;14.63;;
77148;SDS011;66122;47.130;16.844;2022-12-18T02:47:34;37.83;;;14.32;;
77148;SDS011;66122;47.130;16.844;2022-12-18T02:58:47;36.13;;;14.00;;
77148;SDS011;66122;47.130;16.844;2022-12-18T03:01:44;33.67;;;14.95;;
77148;SDS011;66122;47.130;16.844;2022-12-18T03:04:23;34.88;;;14.27;;
77148;SDS011;66122;47.130;16.844;2022-12-18T03:07:09;35.75;;;13.70;;
77148;SDS011;66122;47.130;16.844;2022-12-18T03:09:44;34.65;;;13.40;;
77148;SDS011;66122;47.130;16.844;2022-12-18T03:12:51;34.07;;;13.50;;
77148;SDS011;66122;47.130;16.844;2022-12-18T03:15:35;29.20;;;13.20;;
77148;SDS011;66122;47.130;16.844;2022-12-18T03:18:53;35.92;;;13.57;;
77148;SDS011;66122;47.130;16.844;2022-12-18T03:21:04;37.63;;;14.38;;
77148;SDS011;66122;47.130;16.844;2022-12-18T03:23:40;34.10;;;14.38;;
77148;SDS011;66122;47.130;16.844;2022-12-18T03:26:16;38.33;;;13.93;;
77148;SDS011;66122;47.130;16.844;2022-12-18T03:28:52;34.92;;;15.13;;
77148;SDS011;66122;47.130;16.844;2022-12-18T03:31:25;31.45;;;13.23;;
77148;SDS011;66122;47.130;16.844;2022-12-18T03:34:01;32.88;;;13.85;;
77148;SDS011;66122;47.130;16.844;2022-12-18T03:36:39;35.10;;;12.88;;
77148;SDS011;66122;47.130;16.844;2022-12-18T03:39:08;36.67;;;12.57;;
77148;SDS011;66122;47.130;16.844;2022-12-18T03:53:05;36.73;;;13.27;;
77148;SDS011;66122;47.130;16.844;2022-12-18T03:55:54;32.88;;;13.38;;
77148;SDS011;66122;47.130;16.844;2022-12-18T03:58:25;30.88;;;12.70;;
77148;SDS011;66122;47.130;16.844;2022-12-18T04:01:12;31.88;;;12.52;;
77148;SDS011;66122;47.130;16.844;2022-12-18T04:03:44;32.20;;;12.70;;
77148;SDS011;66122;47.130;16.844;2022-12-18T04:06:17;35.07;;;14.07;;
77148;SDS011;66122;47.130;16.844;2022-12-18T04:08:45;31.02;;;12.27;;
77148;SDS011;66122;47.130;16.844;2022-12-18T04:11:17;33.10;;;12.70;;
77148;SDS011;66122;47.130;16.844;2022-12-18T04:13:47;37.25;;;14.27;;
77148;SDS011;66122;47.130;16.844;2022-12-18T04:16:20;28.98;;;12.27;;
77148;SDS011;66122;47.130;16.844;2022-12-18T04:18:51;34.17;;;13.03;;
77148;SDS011;66122;47.130;16.844;2022-12-18T04:21:20;30.75;;;12.77;;
77148;SDS011;66122;47.130;16.844;2022-12-18T04:23:49;35.25;;;13.85;;
77148;SDS011;66122;47.130;16.844;2022-12-18T04:26:19;32.50;;;12.77;;
77148;SDS011;66122;47.130;16.844;2022-12-18T04:29:06;30.27;;;13.02;;
77148;SDS011;66122;47.130;16.844;2022-12-18T04:31:33;34.70;;;13.20;;
77148;SDS011;66122;47.130;16.844;2022-12-18T04:34:02;35.08;;;12.73;;
77148;SDS011;66122;47.130;16.844;2022-12-18T04:36:36;31.58;;;12.85;;
77148;SDS011;66122;47.130;16.844;2022-12-18T04:39:04;31.33;;;12.70;;
77148;SDS011;66122;47.130;16.844;2022-12-18T04:41:32;25.73;;;12.02;;
77148;SDS011;66122;47.130;16.844;2022-12-18T04:43:59;32.33;;;12.77;;
77148;SDS011;66122;47.130;16.844;2022-12-18T04:46:27;31.52;;;12.98;;
77148;SDS011;66122;47.130;16.844;2022-12-18T04:48:55;31.25;;;12.75;;
77148;SDS011;66122;47.130;16.844;2022-12-18T04:51:22;29.02;;;11.93;;
77148;SDS011;66122;47.130;16.844;2022-12-18T04:53:53;33.40;;;12.05;;
77148;SDS011;66122;47.130;16.844;2022-12-18T04:56:20;32.23;;;13.87;;
77148;SDS011;66122;47.130;16.844;2022-12-18T04:58:48;30.65;;;13.18;;
77148;SDS011;66122;47.130;16.844;2022-12-18T05:01:17;32.15;;;12.02;;
77148;SDS011;66122;47.130;16.844;2022-12-18T05:03:45;35.15;;;13.38;;
77148;SDS011;66122;47.130;16.844;2022-12-18T05:06:13;42.25;;;16.67;;
77148;SDS011;66122;47.130;16.844;2022-12-18T05:08:41;39.80;;;14.50;;
77148;SDS011;66122;47.130;16.844;2022-12-18T05:11:09;39.13;;;15.15;;
77148;SDS011;66122;47.130;16.844;2022-12-18T05:13:38;38.70;;;16.17;;
77148;SDS011;66122;47.130;16.844;2022-12-18T05:16:07;37.08;;;15.02;;
77148;SDS011;66122;47.130;16.844;2022-12-18T05:18:35;39.67;;;14.77;;
77148;SDS011;66122;47.130;16.844;2022-12-18T05:21:03;36.00;;;15.27;;
77148;SDS011;66122;47.130;16.844;2022-12-18T05:23:31;37.30;;;15.07;;
77148;SDS011;66122;47.130;16.844;2022-12-18T05:26:03;35.45;;;15.02;;
77148;SDS011;66122;47.130;16.844;2022-12-18T05:28:32;37.85;;;14.63;;
77148;SDS011;66122;47.130;16.844;2022-12-18T05:31:02;31.98;;;13.52;;
77148;SDS011;66122;47.130;16.844;2022-12-18T05:33:32;30.03;;;12.40;;
77148;SDS011;66122;47.130;16.844;2022-12-18T05:36:02;32.92;;;12.30;;
77148;SDS011;66122;47.130;16.844;2022-12-18T05:38:31;36.38;;;13.85;;
77148;SDS011;66122;47.130;16.844;2022-12-18T05:41:00;32.00;;;13.30;;
77148;SDS011;66122;47.130;16.844;2022-12-18T05:43:28;32.47;;;13.75;;
77148;SDS011;66122;47.130;16.844;2022-12-18T05:45:56;39.43;;;14.37;;
77148;SDS011;66122;47.130;16.844;2022-12-18T05:48:25;33.00;;;12.15;;
77148;SDS011;66122;47.130;16.844;2022-12-18T05:50:53;37.75;;;14.70;;
77148;SDS011;66122;47.130;16.844;2022-12-18T05:53:20;29.42;;;12.82;;
77148;SDS011;66122;47.130;16.844;2022-12-18T05:55:48;36.63;;;14.63;;
77148;SDS011;66122;47.130;16.844;2022-12-18T05:58:16;45.60;;;15.97;;
77148;SDS011;66122;47.130;16.844;2022-12-18T06:00:44;40.15;;;15.07;;
77148;SDS011;66122;47.130;16.844;2022-12-18T06:03:13;41.25;;;14.50;;
77148;SDS011;66122;47.130;16.844;2022-12-18T06:05:42;33.83;;;13.60;;
77148;SDS011;66122;47.130;16.844;2022-12-18T06:08:11;34.92;;;13.65;;
77148;SDS011;66122;47.130;16.844;2022-12-18T06:10:40;37.10;;;14.83;;
77148;SDS011;66122;47.130;16.844;2022-12-18T06:13:08;38.60;;;15.10;;
77148;SDS011;66122;47.130;16.844;2022-12-18T06:15:36;44.08;;;17.80;;
77148;SDS011;66122;47.130;16.844;2022-12-18T06:18:04;40.47;;;14.45;;
77148;SDS011;66122;47.130;16.844;2022-12-18T06:20:32;37.10;;;14.65;;
77148;SDS011;66122;47.130;16.844;2022-12-18T06:23:00;36.60;;;15.30;;
77148;SDS011;66122;47.130;16.844;2022-12-18T06:25:27;42.67;;;15.90;;
77148;SDS011;66122;47.130;16.844;2022-12-18T06:27:55;38.47;;;16.35;;
77148;SDS011;66122;47.130;16.844;2022-12-18T06:30:23;45.38;;;17.52;;
77148;SDS011;66122;47.130;16.844;2022-12-18T06:32:50;34.47;;;14.13;;
77148;SDS011;66122;47.130;16.844;2022-12-18T06:35:23;32.83;;;12.90;;
77148;SDS011;66122;47.130;16.844;2022-12-18T06:37:50;40.53;;;14.70;;
77148;SDS011;66122;47.130;16.844;2022-12-18T06:40:18;28.70;;;13.13;;
77148;SDS011;66122;47.130;16.844;2022-12-18T06:42:46;35.78;;;13.45;;
77148;SDS011;66122;47.130;16.844;2022-12-18T06:45:15;35.42;;;13.52;;
77148;SDS011;66122;47.130;16.844;2022-12-18T06:47:43;63.23;;;27.90;;
77148;SDS011;66122;47.130;16.844;2022-12-18T06:50:11;49.42;;;19.42;;
77148;SDS011;66122;47.130;16.844;2022-12-18T06:52:39;38.42;;;14.90;;
77148;SDS011;66122;47.130;16.844;2022-12-18T06:55:11;37.20;;;14.13;;
77148;SDS011;66122;47.130;16.844;2022-12-18T06:57:38;38.50;;;15.15;;
77148;SDS011;66122;47.130;16.844;2022-12-18T07:00:06;39.43;;;15.53;;
77148;SDS011;66122;47.130;16.844;2022-12-18T07:02:34;42.08;;;15.50;;
77148;SDS011;66122;47.130;16.844;2022-12-18T07:05:02;38.88;;;16.80;;
77148;SDS011;66122;47.130;16.844;2022-12-18T07:07:37;41.28;;;15.73;;
77148;SDS011;66122;47.130;16.844;2022-12-18T07:10:05;40.03;;;15.05;;
77148;SDS011;66122;47.130;16.844;2022-12-18T07:12:32;36.37;;;14.77;;
77148;SDS011;66122;47.130;16.844;2022-12-18T07:15:00;35.28;;;14.32;;
77148;SDS011;66122;47.130;16.844;2022-12-18T07:17:28;37.55;;;15.50;;
77148;SDS011;66122;47.130;16.844;2022-12-18T07:19:56;46.20;;;15.43;;
77148;SDS011;66122;47.130;16.844;2022-12-18T07:22:24;33.55;;;13.57;;
77148;SDS011;66122;47.130;16.844;2022-12-18T07:24:53;35.37;;;15.03;;
77148;SDS011;66122;47.130;16.844;2022-12-18T07:27:20;35.50;;;15.07;;
77148;SDS011;66122;47.130;16.844;2022-12-18T07:29:49;36.10;;;15.40;;
77148;SDS011;66122;47.130;16.844;2022-12-18T07:32:16;32.25;;;12.98;;
77148;SDS011;66122;47.130;16.844;2022-12-18T07:34:44;34.08;;;13.48;;
77148;SDS011;66122;47.130;16.844;2022-12-18T07:37:13;41.73;;;17.90;;
77148;SDS011;66122;47.130;16.844;2022-12-18T07:39:40;47.72;;;20.90;;
77148;SDS011;66122;47.130;16.844;2022-12-18T07:42:08;45.92;;;19.65;;
77148;SDS011;66122;47.130;16.844;2022-12-18T07:44:54;38.40;;;17.92;;
77148;SDS011;66122;47.130;16.844;2022-12-18T07:47:22;38.22;;;14.23;;
77148;SDS011;66122;47.130;16.844;2022-12-18T07:49:50;37.77;;;15.07;;
77148;SDS011;66122;47.130;16.844;2022-12-18T07:52:17;38.25;;;16.38;;
77148;SDS011;66122;47.130;16.844;2022-12-18T07:54:52;27.85;;;13.52;;
77148;SDS011;66122;47.130;16.844;2022-12-18T07:57:19;33.38;;;13.60;;
77148;SDS011;66122;47.130;16.844;2022-12-18T08:00:07;36.53;;;16.95;;
77148;SDS011;66122;47.130;16.844;2022-12-18T08:02:38;37.30;;;15.27;;
77148;SDS011;66122;47.130;16.844;2022-12-18T08:05:06;32.45;;;15.10;;
77148;SDS011;66122;47.130;16.844;2022-12-18T08:07:33;33.92;;;13.77;;
77148;SDS011;66122;47.130;16.844;2022-12-18T08:10:01;31.80;;;14.00;;
77148;SDS011;66122;47.130;16.844;2022-12-18T08:12:30;33.47;;;13.88;;
77148;SDS011;66122;47.130;16.844;2022-12-18T08:14:57;31.80;;;12.87;;
77148;SDS011;66122;47.130;16.844;2022-12-18T08:17:25;41.30;;;14.63;;
77148;SDS011;66122;47.130;16.844;2022-12-18T08:19:52;38.45;;;14.77;;
77148;SDS011;66122;47.130;16.844;2022-12-18T08:22:20;33.95;;;14.45;;
77148;SDS011;66122;47.130;16.844;2022-12-18T08:24:47;33.15;;;14.68;;
77148;SDS011;66122;47.130;16.844;2022-12-18T08:27:15;27.80;;;13.33;;
77148;SDS011;66122;47.130;16.844;2022-12-18T08:29:58;28.63;;;13.98;;
77148;SDS011;66122;47.130;16.844;2022-12-18T08:32:26;37.13;;;17.48;;
77148;SDS011;66122;47.130;16.844;2022-12-18T08:34:55;39.22;;;18.33;;
77148;SDS011;66122;47.130;16.844;2022-12-18T08:37:22;32.05;;;14.52;;
77148;SDS011;66122;47.130;16.844;2022-12-18T08:39:50;26.40;;;12.03;;
77148;SDS011;66122;47.130;16.844;2022-12-18T08:42:18;27.73;;;13.53;;
77148;SDS011;66122;47.130;16.844;2022-12-18T08:45:04;32.55;;;13.68;;
77148;SDS011;66122;47.130;16.844;2022-12-18T08:47:32;30.67;;;14.05;;
77148;SDS011;66122;47.130;16.844;2022-12-18T08:50:00;31.20;;;13.18;;
77148;SDS011;66122;47.130;16.844;2022-12-18T08:52:28;24.57;;;10.53;;
77148;SDS011;66122;47.130;16.844;2022-12-18T08:54:55;22.50;;;12.23;;
77148;SDS011;66122;47.130;16.844;2022-12-18T08:57:23;24.20;;;12.90;;
77148;SDS011;66122;47.130;16.844;2022-12-18T08:59:51;21.10;;;10.88;;
77148;SDS011;66122;47.130;16.844;2022-12-18T09:02:18;24.77;;;11.73;;
77148;SDS011;66122;47.130;16.844;2022-12-18T09:04:47;21.45;;;10.45;;
77148;SDS011;66122;47.130;16.844;2022-12-18T09:07:23;23.45;;;8.98;;
77148;SDS011;66122;47.130;16.844;2022-12-18T09:09:50;19.38;;;9.73;;
77148;SDS011;66122;47.130;16.844;2022-12-18T09:12:18;22.55;;;10.65;;
77148;SDS011;66122;47.130;16.844;2022-12-18T09:14:45;18.55;;;9.40;;
77148;SDS011;66122;47.130;16.844;2022-12-18T09:17:13;20.20;;;10.13;;
77148;SDS011;66122;47.130;16.844;2022-12-18T09:19:41;20.20;;;9.53;;
77148;SDS011;66122;47.130;16.844;2022-12-18T09:22:10;20.83;;;9.75;;
77148;SDS011;66122;47.130;16.844;2022-12-18T09:24:37;21.90;;;12.07;;
77148;SDS011;66122;47.130;16.844;2022-12-18T09:27:05;21.35;;;10.38;;
77148;SDS011;66122;47.130;16.844;2022-12-18T09:29:34;20.90;;;10.77;;
77148;SDS011;66122;47.130;16.844;2022-12-18T09:32:01;24.30;;;10.93;;
77148;SDS011;66122;47.130;16.844;2022-12-18T09:34:30;19.05;;;10.07;;
77148;SDS011;66122;47.130;16.844;2022-12-18T09:36:57;21.65;;;11.07;;
77148;SDS011;66122;47.130;16.844;2022-12-18T09:39:25;23.45;;;12.13;;
77148;SDS011;66122;47.130;16.844;2022-12-18T09:41:53;19.50;;;9.87;;
77148;SDS011;66122;47.130;16.844;2022-12-18T09:47:06;22.85;;;11.20;;
77148;SDS011;66122;47.130;16.844;2022-12-18T09:49:40;20.67;;;9.98;;
77148;SDS011;66122;47.130;16.844;2022-12-18T09:57:42;22.27;;;9.90;;
77148;SDS011;66122;47.130;16.844;2022-12-18T10:00:19;21.58;;;10.93;;
77148;SDS011;66122;47.130;16.844;2022-12-18T10:02:48;20.02;;;10.13;;
77148;SDS011;66122;47.130;16.844;2022-12-18T10:05:20;20.15;;;10.27;;
77148;SDS011;66122;47.130;16.844;2022-12-18T10:19:28;18.60;;;10.25;;
77148;SDS011;66122;47.130;16.844;2022-12-18T10:22:11;20.98;;;10.15;;
77148;SDS011;66122;47.130;16.844;2022-12-18T10:27:32;20.98;;;11.23;;
77148;SDS011;66122;47.130;16.844;2022-12-18T10:30:01;23.60;;;12.45;;
77148;SDS011;66122;47.130;16.844;2022-12-18T10:32:40;23.73;;;12.00;;
77148;SDS011;66122;47.130;16.844;2022-12-18T10:35:11;24.45;;;12.80;;
77148;SDS011;66122;47.130;16.844;2022-12-18T10:38:03;21.80;;;11.90;;
77148;SDS011;66122;47.130;16.844;2022-12-18T10:41:04;26.38;;;12.88;;
77148;SDS011;66122;47.130;16.844;2022-12-18T10:43:39;25.52;;;12.57;;
77148;SDS011;66122;47.130;16.844;2022-12-18T10:48:36;24.60;;;12.65;;
77148;SDS011;66122;47.130;16.844;2022-12-18T10:51:27;24.13;;;11.77;;
77148;SDS011;66122;47.130;16.844;2022-12-18T10:56:40;19.77;;;10.48;;
77148;SDS011;66122;47.130;16.844;2022-12-18T10:59:11;21.25;;;11.00;;
77148;SDS011;66122;47.130;16.844;2022-12-18T11:01:59;21.83;;;11.27;;
77148;SDS011;66122;47.130;16.844;2022-12-18T11:04:28;19.93;;;10.73;;
77148;SDS011;66122;47.130;16.844;2022-12-18T11:06:59;23.42;;;11.43;;
77148;SDS011;66122;47.130;16.844;2022-12-18T11:09:35;21.80;;;10.73;;
77148;SDS011;66122;47.130;16.844;2022-12-18T11:12:16;21.02;;;11.73;;
77148;SDS011;66122;47.130;16.844;2022-12-18T11:14:47;26.17;;;12.88;;
77148;SDS011;66122;47.130;16.844;2022-12-18T11:17:34;23.70;;;11.33;;
77148;SDS011;66122;47.130;16.844;2022-12-18T11:20:06;19.50;;;10.95;;
77148;SDS011;66122;47.130;16.844;2022-12-18T11:22:55;21.52;;;12.07;;
77148;SDS011;66122;47.130;16.844;2022-12-18T11:25:25;21.48;;;11.32;;
77148;SDS011;66122;47.130;16.844;2022-12-18T11:28:04;21.17;;;11.43;;
77148;SDS011;66122;47.130;16.844;2022-12-18T11:30:50;19.67;;;11.33;;
77148;SDS011;66122;47.130;16.844;2022-12-18T11:33:39;22.02;;;11.57;;
77148;SDS011;66122;47.130;16.844;2022-12-18T11:36:33;24.10;;;12.75;;
77148;SDS011;66122;47.130;16.844;2022-12-18T11:39:09;22.00;;;12.30;;
77148;SDS011;66122;47.130;16.844;2022-12-18T11:41:49;24.75;;;13.00;;
77148;SDS011;66122;47.130;16.844;2022-12-18T11:44:42;20.57;;;11.10;;
77148;SDS011;66122;47.130;16.844;2022-12-18T11:50:15;24.33;;;13.02;;
77148;SDS011;66122;47.130;16.844;2022-12-18T11:52:45;19.52;;;10.75;;
77148;SDS011;66122;47.130;16.844;2022-12-18T12:18:19;20.30;;;9.77;;
77148;SDS011;66122;47.130;16.844;2022-12-18T12:40:23;19.37;;;10.57;;
77148;SDS011;66122;47.130;16.844;2022-12-18T12:48:27;24.38;;;11.55;;
77148;SDS011;66122;47.130;16.844;2022-12-18T12:51:02;21.60;;;9.93;;
77148;SDS011;66122;47.130;16.844;2022-12-18T12:53:38;21.80;;;10.27;;
77148;SDS011;66122;47.130;16.844;2022-12-18T12:56:08;18.08;;;9.93;;
77148;SDS011;66122;47.130;16.844;2022-12-18T13:01:25;17.70;;;7.97;;
77148;SDS011;66122;47.130;16.844;2022-12-18T13:09:20;17.30;;;8.05;;
77148;SDS011;66122;47.130;16.844;2022-12-18T13:11:48;19.83;;;9.50;;
77148;SDS011;66122;47.130;16.844;2022-12-18T13:14:35;18.20;;;9.30;;
77148;SDS011;66122;47.130;16.844;2022-12-18T13:19:51;22.60;;;9.10;;
77148;SDS011;66122;47.130;16.844;2022-12-18T13:22:34;20.70;;;9.68;;
77148;SDS011;66122;47.130;16.844;2022-12-18T13:25:26;26.17;;;10.75;;
77148;SDS011;66122;47.130;16.844;2022-12-18T13:28:00;19.42;;;8.73;;
77148;SDS011;66122;47.130;16.844;2022-12-18T13:30:41;17.40;;;8.80;;
77148;SDS011;66122;47.130;16.844;2022-12-18T13:43:45;18.40;;;8.27;;
77148;SDS011;66122;47.130;16.844;2022-12-18T13:51:42;21.67;;;9.45;;
77148;SDS011;66122;47.130;16.844;2022-12-18T13:57:26;30.75;;;14.48;;
77148;SDS011;66122;47.130;16.844;2022-12-18T13:59:55;29.53;;;11.13;;
77148;SDS011;66122;47.130;16.844;2022-12-18T14:02:24;20.73;;;9.77;;
77148;SDS011;66122;47.130;16.844;2022-12-18T14:04:53;23.95;;;9.38;;
77148;SDS011;66122;47.130;16.844;2022-12-18T14:07:25;20.02;;;9.45;;
77148;SDS011;66122;47.130;16.844;2022-12-18T14:10:00;22.93;;;10.17;;
77148;SDS011;66122;47.130;16.844;2022-12-18T14:12:49;26.83;;;11.60;;
77148;SDS011;66122;47.130;16.844;2022-12-18T14:18:41;23.85;;;12.00;;
77148;SDS011;66122;47.130;16.844;2022-12-18T14:24:15;28.07;;;12.83;;
77148;SDS011;66122;47.130;16.844;2022-12-18T14:26:46;29.80;;;13.47;;
77148;SDS011;66122;47.130;16.844;2022-12-18T14:32:10;34.80;;;17.08;;
77148;SDS011;66122;47.130;16.844;2022-12-18T14:34:48;32.10;;;15.60;;
77148;SDS011;66122;47.130;16.844;2022-12-18T14:37:20;48.88;;;22.80;;
77148;SDS011;66122;47.130;16.844;2022-12-18T14:39:53;55.07;;;25.70;;
77148;SDS011;66122;47.130;16.844;2022-12-18T14:42:21;50.75;;;25.27;;
77148;SDS011;66122;47.130;16.844;2022-12-18T14:44:49;45.63;;;23.02;;
77148;SDS011;66122;47.130;16.844;2022-12-18T14:47:36;42.40;;;20.33;;
77148;SDS011;66122;47.130;16.844;2022-12-18T14:50:11;35.03;;;16.13;;
77148;SDS011;66122;47.130;16.844;2022-12-18T14:52:40;31.20;;;14.53;;
77148;SDS011;66122;47.130;16.844;2022-12-18T14:55:18;28.25;;;14.43;;
77148;SDS011;66122;47.130;16.844;2022-12-18T14:57:49;32.75;;;13.80;;
77148;SDS011;66122;47.130;16.844;2022-12-18T15:00:22;29.65;;;14.02;;
77148;SDS011;66122;47.130;16.844;2022-12-18T15:02:53;33.53;;;14.73;;
77148;SDS011;66122;47.130;16.844;2022-12-18T15:05:27;32.33;;;15.40;;
77148;SDS011;66122;47.130;16.844;2022-12-18T15:07:57;37.17;;;18.20;;
77148;SDS011;66122;47.130;16.844;2022-12-18T15:18:01;55.17;;;24.43;;
77148;SDS011;66122;47.130;16.844;2022-12-18T15:20:32;61.45;;;28.70;;
77148;SDS011;66122;47.130;16.844;2022-12-18T15:23:35;68.47;;;29.60;;
77148;SDS011;66122;47.130;16.844;2022-12-18T15:26:26;63.67;;;28.38;;
77148;SDS011;66122;47.130;16.844;2022-12-18T15:29:04;51.20;;;24.37;;
77148;SDS011;66122;47.130;16.844;2022-12-18T15:31:35;60.33;;;25.83;;
77148;SDS011;66122;47.130;16.844;2022-12-18T15:36:36;56.60;;;25.25;;
77148;SDS011;66122;47.130;16.844;2022-12-18T15:39:05;57.17;;;23.98;;
77148;SDS011;66122;47.130;16.844;2022-12-18T15:41:33;60.90;;;25.87;;
77148;SDS011;66122;47.130;16.844;2022-12-18T15:44:15;57.25;;;25.05;;
77148;SDS011;66122;47.130;16.844;2022-12-18T15:46:50;65.45;;;26.38;;
77148;SDS011;66122;47.130;16.844;2022-12-18T15:49:18;53.03;;;22.55;;
77148;SDS011;66122;47.130;16.844;2022-12-18T15:51:46;57.50;;;23.50;;
77148;SDS011;66122;47.130;16.844;2022-12-18T15:54:19;61.77;;;25.63;;
77148;SDS011;66122;47.130;16.844;2022-12-18T15:57:10;94.72;;;36.90;;
77148;SDS011;66122;47.130;16.844;2022-12-18T15:59:59;59.63;;;24.88;;
77148;SDS011;66122;47.130;16.844;2022-12-18T16:02:27;58.00;;;25.88;;
77148;SDS011;66122;47.130;16.844;2022-12-18T16:04:56;54.45;;;22.40;;
77148;SDS011;66122;47.130;16.844;2022-12-18T16:07:24;40.80;;;17.63;;
77148;SDS011;66122;47.130;16.844;2022-12-18T16:09:56;29.65;;;13.60;;
77148;SDS011;66122;47.130;16.844;2022-12-18T16:12:27;28.60;;;13.73;;
77148;SDS011;66122;47.130;16.844;2022-12-18T16:14:54;31.88;;;12.88;;
77148;SDS011;66122;47.130;16.844;2022-12-18T16:17:22;32.72;;;13.27;;
77148;SDS011;66122;47.130;16.844;2022-12-18T16:19:50;28.23;;;12.73;;
77148;SDS011;66122;47.130;16.844;2022-12-18T16:22:20;29.02;;;12.10;;
77148;SDS011;66122;47.130;16.844;2022-12-18T16:24:52;28.30;;;12.98;;
77148;SDS011;66122;47.130;16.844;2022-12-18T16:27:22;30.02;;;13.25;;
77148;SDS011;66122;47.130;16.844;2022-12-18T16:29:50;32.80;;;13.13;;
77148;SDS011;66122;47.130;16.844;2022-12-18T16:32:19;45.47;;;16.80;;
77148;SDS011;66122;47.130;16.844;2022-12-18T16:34:49;58.05;;;21.50;;
77148;SDS011;66122;47.130;16.844;2022-12-18T16:37:17;41.72;;;18.48;;
77148;SDS011;66122;47.130;16.844;2022-12-18T16:39:46;48.15;;;20.83;;
77148;SDS011;66122;47.130;16.844;2022-12-18T16:42:17;57.65;;;23.15;;
77148;SDS011;66122;47.130;16.844;2022-12-18T16:44:47;50.30;;;20.30;;
77148;SDS011;66122;47.130;16.844;2022-12-18T16:47:16;49.58;;;23.15;;
77148;SDS011;66122;47.130;16.844;2022-12-18T16:49:44;49.03;;;18.80;;
77148;SDS011;66122;47.130;16.844;2022-12-18T16:52:13;42.90;;;18.08;;
77148;SDS011;66122;47.130;16.844;2022-12-18T16:54:40;37.85;;;16.80;;
77148;SDS011;66122;47.130;16.844;2022-12-18T16:57:12;32.57;;;14.33;;
77148;SDS011;66122;47.130;16.844;2022-12-18T16:59:41;32.58;;;13.80;;
77148;SDS011;66122;47.130;16.844;2022-12-18T17:02:14;30.83;;;14.27;;
77148;SDS011;66122;47.130;16.844;2022-12-18T17:04:47;30.27;;;13.50;;
77148;SDS011;66122;47.130;16.844;2022-12-18T17:07:16;30.17;;;14.27;;
77148;SDS011;66122;47.130;16.844;2022-12-18T17:09:44;33.53;;;13.30;;
77148;SDS011;66122;47.130;16.844;2022-12-18T17:12:13;29.90;;;12.75;;
77148;SDS011;66122;47.130;16.844;2022-12-18T17:14:41;33.67;;;13.75;;